sensor_id;sensor_type;location;lat;lon;timestamp;pressure;altitude;pressure_sealevel;temperature;humidity
30935;BME280;51033;42.648;23.292;2022-11-25T00:00:43;93613.84;;;4.73;54.66
30935;BME280;51033;42.648;23.292;2022-11-25T00:03:08;93619.31;;;4.77;54.47
30935;BME280;51033;42.648;23.292;2022-11-25T00:05:33;93613.41;;;4.85;54.32
30935;BME280;51033;42.648;23.292;2022-11-25T00:07:59;93609.88;;;4.94;53.39
30935;BME280;51033;42.648;23.292;2022-11-25T00:10:24;93634.69;;;4.93;53.46
30935;BME280;51033;42.648;23.292;2022-11-25T00:12:49;93632.09;;;4.88;53.49
30935;BME280;51033;42.648;23.292;2022-11-25T00:15:15;93624.44;;;4.68;53.85
30935;BME280;51033;42.648;23.292;2022-11-25T00:17:40;93637.59;;;4.92;53.82
30935;BME280;51033;42.648;23.292;2022-11-25T00:20:06;93633.78;;;5.03;53.76
30935;BME280;51033;42.648;23.292;2022-11-25T00:22:31;93641.38;;;5.04;53.52
30935;BME280;51033;42.648;23.292;2022-11-25T00:24:57;93648.53;;;5.04;53.63
30935;BME280;51033;42.648;23.292;2022-11-25T00:27:22;93644.50;;;4.88;54.10
30935;BME280;51033;42.648;23.292;2022-11-25T00:29:47;93611.56;;;4.61;54.14
30935;BME280;51033;42.648;23.292;2022-11-25T00:32:13;93633.91;;;4.69;55.02
30935;BME280;51033;42.648;23.292;2022-11-25T00:34:38;93622.53;;;4.50;55.09
30935;BME280;51033;42.648;23.292;2022-11-25T00:37:03;93649.81;;;4.59;55.52
30935;BME280;51033;42.648;23.292;2022-11-25T00:39:29;93640.00;;;4.64;55.91
30935;BME280;51033;42.648;23.292;2022-11-25T00:41:54;93654.88;;;4.79;55.14
30935;BME280;51033;42.648;23.292;2022-11-25T00:44:38;93622.84;;;4.67;54.98
30935;BME280;51033;42.648;23.292;2022-11-25T00:47:18;93618.03;;;4.74;54.99
30935;BME280;51033;42.648;23.292;2022-11-25T00:49:51;93639.50;;;4.86;54.68
30935;BME280;51033;42.648;23.292;2022-11-25T00:52:22;93646.50;;;4.96;54.64
30935;BME280;51033;42.648;23.292;2022-11-25T00:54:49;93643.28;;;5.23;54.26
30935;BME280;51033;42.648;23.292;2022-11-25T00:57:22;93641.66;;;5.45;53.44
30935;BME280;51033;42.648;23.292;2022-11-25T00:59:47;93623.84;;;5.37;53.20
30935;BME280;51033;42.648;23.292;2022-11-25T01:02:14;93623.25;;;5.22;52.89
30935;BME280;51033;42.648;23.292;2022-11-25T01:04:40;93619.88;;;5.16;53.41
30935;BME280;51033;42.648;23.292;2022-11-25T01:07:05;93648.75;;;5.26;53.55
30935;BME280;51033;42.648;23.292;2022-11-25T01:09:31;93623.72;;;5.05;53.69
30935;BME280;51033;42.648;23.292;2022-11-25T01:11:56;93649.81;;;5.06;54.18
30935;BME280;51033;42.648;23.292;2022-11-25T01:14:23;93650.25;;;5.13;53.91
30935;BME280;51033;42.648;23.292;2022-11-25T01:16:48;93637.34;;;5.12;53.70
30935;BME280;51033;42.648;23.292;2022-11-25T01:19:15;93651.00;;;5.14;53.94
30935;BME280;51033;42.648;23.292;2022-11-25T01:21:41;93650.44;;;4.98;54.17
30935;BME280;51033;42.648;23.292;2022-11-25T01:24:07;93629.28;;;5.03;53.80
30935;BME280;51033;42.648;23.292;2022-11-25T01:26:34;93634.28;;;5.24;53.32
30935;BME280;51033;42.648;23.292;2022-11-25T01:29:05;93638.97;;;5.08;53.40
30935;BME280;51033;42.648;23.292;2022-11-25T01:31:33;93633.47;;;5.04;53.61
30935;BME280;51033;42.648;23.292;2022-11-25T01:34:02;93612.34;;;4.86;53.65
30935;BME280;51033;42.648;23.292;2022-11-25T01:36:28;93618.81;;;4.98;53.33
30935;BME280;51033;42.648;23.292;2022-11-25T01:38:55;93602.94;;;5.03;53.06
30935;BME280;51033;42.648;23.292;2022-11-25T01:41:22;93615.25;;;5.08;52.36
30935;BME280;51033;42.648;23.292;2022-11-25T01:49:09;93597.72;;;4.98;52.01
30935;BME280;51033;42.648;23.292;2022-11-25T01:51:43;93564.53;;;4.97;51.64
30935;BME280;51033;42.648;23.292;2022-11-25T01:54:12;93534.22;;;4.95;51.29
30935;BME280;51033;42.648;23.292;2022-11-25T01:56:53;93568.22;;;5.34;50.58
30935;BME280;51033;42.648;23.292;2022-11-25T01:59:21;93580.22;;;5.26;50.70
30935;BME280;51033;42.648;23.292;2022-11-25T02:01:47;93559.72;;;4.99;50.89
30935;BME280;51033;42.648;23.292;2022-11-25T02:04:13;93589.25;;;5.20;51.52
30935;BME280;51033;42.648;23.292;2022-11-25T02:06:49;93604.94;;;5.11;51.26
30935;BME280;51033;42.648;23.292;2022-11-25T02:09:17;93585.72;;;4.87;51.00
30935;BME280;51033;42.648;23.292;2022-11-25T02:11:43;93602.47;;;4.96;51.43
30935;BME280;51033;42.648;23.292;2022-11-25T02:14:11;93599.91;;;4.91;51.43
30935;BME280;51033;42.648;23.292;2022-11-25T02:16:37;93600.13;;;4.95;51.53
30935;BME280;51033;42.648;23.292;2022-11-25T02:19:04;93582.75;;;4.70;51.21
30935;BME280;51033;42.648;23.292;2022-11-25T02:21:39;93597.91;;;4.83;51.85
30935;BME280;51033;42.648;23.292;2022-11-25T02:24:16;93616.94;;;4.75;51.84
30935;BME280;51033;42.648;23.292;2022-11-25T02:26:43;93620.06;;;4.58;52.20
30935;BME280;51033;42.648;23.292;2022-11-25T02:29:08;93585.81;;;4.35;52.34
30935;BME280;51033;42.648;23.292;2022-11-25T02:31:35;93621.47;;;4.46;52.20
30935;BME280;51033;42.648;23.292;2022-11-25T02:34:00;93615.63;;;4.54;52.01
30935;BME280;51033;42.648;23.292;2022-11-25T02:36:26;93622.53;;;4.50;52.00
30935;BME280;51033;42.648;23.292;2022-11-25T02:38:56;93597.88;;;4.36;52.13
30935;BME280;51033;42.648;23.292;2022-11-25T02:41:26;93594.72;;;4.62;51.69
30935;BME280;51033;42.648;23.292;2022-11-25T02:43:53;93601.44;;;4.50;51.62
30935;BME280;51033;42.648;23.292;2022-11-25T02:46:21;93629.91;;;4.72;51.63
30935;BME280;51033;42.648;23.292;2022-11-25T02:48:48;93629.53;;;4.59;51.99
30935;BME280;51033;42.648;23.292;2022-11-25T02:51:16;93599.88;;;4.49;52.27
30935;BME280;51033;42.648;23.292;2022-11-25T02:53:42;93630.81;;;4.62;52.58
30935;BME280;51033;42.648;23.292;2022-11-25T02:56:09;93619.47;;;4.38;53.22
30935;BME280;51033;42.648;23.292;2022-11-25T02:58:35;93641.44;;;4.52;53.58
30935;BME280;51033;42.648;23.292;2022-11-25T03:01:00;93643.81;;;4.53;53.35
30935;BME280;51033;42.648;23.292;2022-11-25T03:03:26;93615.03;;;4.33;53.51
30935;BME280;51033;42.648;23.292;2022-11-25T03:05:51;93627.38;;;4.38;53.76
30935;BME280;51033;42.648;23.292;2022-11-25T03:08:17;93624.13;;;4.46;54.00
30935;BME280;51033;42.648;23.292;2022-11-25T03:10:42;93640.47;;;4.43;54.07
30935;BME280;51033;42.648;23.292;2022-11-25T03:13:08;93622.63;;;4.40;54.39
30935;BME280;51033;42.648;23.292;2022-11-25T03:15:35;93643.72;;;4.35;54.50
30935;BME280;51033;42.648;23.292;2022-11-25T03:18:01;93651.75;;;4.48;54.60
30935;BME280;51033;42.648;23.292;2022-11-25T03:20:27;93596.94;;;4.21;54.38
30935;BME280;51033;42.648;23.292;2022-11-25T03:22:52;93651.97;;;4.52;54.78
30935;BME280;51033;42.648;23.292;2022-11-25T03:25:18;93654.06;;;4.55;54.84
30935;BME280;51033;42.648;23.292;2022-11-25T03:27:44;93662.63;;;4.65;54.86
30935;BME280;51033;42.648;23.292;2022-11-25T03:30:16;93644.81;;;4.57;54.96
30935;BME280;51033;42.648;23.292;2022-11-25T03:32:42;93633.91;;;4.69;54.87
30935;BME280;51033;42.648;23.292;2022-11-25T03:35:08;93671.00;;;4.96;54.59
30935;BME280;51033;42.648;23.292;2022-11-25T03:37:34;93671.44;;;4.80;55.08
30935;BME280;51033;42.648;23.292;2022-11-25T03:40:00;93677.69;;;4.89;55.23
30935;BME280;51033;42.648;23.292;2022-11-25T03:42:25;93652.94;;;4.61;55.62
30935;BME280;51033;42.648;23.292;2022-11-25T03:44:51;93670.47;;;4.70;55.78
30935;BME280;51033;42.648;23.292;2022-11-25T03:47:16;93677.38;;;4.90;55.43
30935;BME280;51033;42.648;23.292;2022-11-25T03:49:41;93657.03;;;4.72;55.39
30935;BME280;51033;42.648;23.292;2022-11-25T03:52:07;93673.47;;;4.64;55.66
30935;BME280;51033;42.648;23.292;2022-11-25T03:54:32;93660.34;;;4.59;56.14
30935;BME280;51033;42.648;23.292;2022-11-25T03:56:58;93625.91;;;4.21;56.21
30935;BME280;51033;42.648;23.292;2022-11-25T03:59:23;93672.66;;;4.40;56.23
30935;BME280;51033;42.648;23.292;2022-11-25T04:01:49;93652.56;;;4.15;56.64
30935;BME280;51033;42.648;23.292;2022-11-25T04:04:14;93662.84;;;4.11;56.71
30935;BME280;51033;42.648;23.292;2022-11-25T04:06:39;93661.56;;;4.09;57.08
30935;BME280;51033;42.648;23.292;2022-11-25T04:09:06;93696.94;;;4.32;56.49
30935;BME280;51033;42.648;23.292;2022-11-25T04:11:32;93699.94;;;4.15;56.92
30935;BME280;51033;42.648;23.292;2022-11-25T04:14:15;93702.72;;;4.28;56.81
30935;BME280;51033;42.648;23.292;2022-11-25T04:16:41;93702.53;;;4.20;56.95
30935;BME280;51033;42.648;23.292;2022-11-25T04:19:06;93702.50;;;3.91;57.57
30935;BME280;51033;42.648;23.292;2022-11-25T04:21:31;93675.22;;;3.77;57.67
30935;BME280;51033;42.648;23.292;2022-11-25T04:23:57;93693.53;;;3.92;57.43
30935;BME280;51033;42.648;23.292;2022-11-25T04:26:22;93708.94;;;4.09;57.42
30935;BME280;51033;42.648;23.292;2022-11-25T04:28:48;93706.31;;;4.09;57.34
30935;BME280;51033;42.648;23.292;2022-11-25T04:31:13;93708.44;;;4.02;57.59
30935;BME280;51033;42.648;23.292;2022-11-25T04:33:38;93708.44;;;4.02;57.73
30935;BME280;51033;42.648;23.292;2022-11-25T04:36:04;93690.44;;;3.85;57.71
30935;BME280;51033;42.648;23.292;2022-11-25T04:38:29;93693.53;;;3.92;57.51
30935;BME280;51033;42.648;23.292;2022-11-25T04:40:55;93702.66;;;4.05;57.09
30935;BME280;51033;42.648;23.292;2022-11-25T04:43:20;93696.72;;;3.89;57.58
30935;BME280;51033;42.648;23.292;2022-11-25T04:45:46;93700.34;;;3.93;57.41
30935;BME280;51033;42.648;23.292;2022-11-25T04:48:12;93693.28;;;3.89;57.34
30935;BME280;51033;42.648;23.292;2022-11-25T04:50:38;93716.06;;;4.03;57.34
30935;BME280;51033;42.648;23.292;2022-11-25T04:53:03;93720.56;;;4.03;57.50
30935;BME280;51033;42.648;23.292;2022-11-25T04:55:29;93717.94;;;3.98;57.41
30935;BME280;51033;42.648;23.292;2022-11-25T04:57:54;93709.94;;;3.79;57.62
30935;BME280;51033;42.648;23.292;2022-11-25T05:00:20;93733.03;;;3.82;57.69
30935;BME280;51033;42.648;23.292;2022-11-25T05:02:45;93739.81;;;3.93;57.48
30935;BME280;51033;42.648;23.292;2022-11-25T05:05:11;93764.56;;;3.92;57.41
30935;BME280;51033;42.648;23.292;2022-11-25T05:07:36;93758.75;;;4.00;57.21
30935;BME280;51033;42.648;23.292;2022-11-25T05:10:03;93767.13;;;4.02;56.78
30935;BME280;51033;42.648;23.292;2022-11-25T05:12:29;93772.38;;;4.07;56.61
30935;BME280;51033;42.648;23.292;2022-11-25T05:14:55;93758.19;;;4.03;56.11
30935;BME280;51033;42.648;23.292;2022-11-25T05:17:28;93783.13;;;4.16;55.52
30935;BME280;51033;42.648;23.292;2022-11-25T05:19:54;93786.81;;;4.15;55.55
30935;BME280;51033;42.648;23.292;2022-11-25T05:22:22;93795.44;;;4.25;55.11
30935;BME280;51033;42.648;23.292;2022-11-25T05:24:48;93777.06;;;4.15;54.92
30935;BME280;51033;42.648;23.292;2022-11-25T05:27:14;93778.63;;;4.16;54.61
30935;BME280;51033;42.648;23.292;2022-11-25T05:29:40;93779.09;;;4.23;54.95
30935;BME280;51033;42.648;23.292;2022-11-25T05:32:06;93790.25;;;4.10;54.63
30935;BME280;51033;42.648;23.292;2022-11-25T05:34:31;93797.88;;;4.12;54.74
30935;BME280;51033;42.648;23.292;2022-11-25T05:36:57;93823.38;;;4.11;54.62
30935;BME280;51033;42.648;23.292;2022-11-25T05:39:23;93825.63;;;3.89;55.54
30935;BME280;51033;42.648;23.292;2022-11-25T05:41:48;93797.59;;;3.64;55.65
30935;BME280;51033;42.648;23.292;2022-11-25T05:44:14;93825.81;;;4.03;55.58
30935;BME280;51033;42.648;23.292;2022-11-25T05:46:39;93818.72;;;4.03;54.89
30935;BME280;51033;42.648;23.292;2022-11-25T05:49:05;93829.75;;;4.10;54.89
30935;BME280;51033;42.648;23.292;2022-11-25T05:51:30;93838.09;;;4.17;55.07
30935;BME280;51033;42.648;23.292;2022-11-25T05:53:56;93829.28;;;3.93;54.71
30935;BME280;51033;42.648;23.292;2022-11-25T05:56:22;93843.59;;;3.77;55.22
30935;BME280;51033;42.648;23.292;2022-11-25T05:58:48;93820.44;;;3.74;55.26
30935;BME280;51033;42.648;23.292;2022-11-25T06:01:15;93836.47;;;3.72;55.36
30935;BME280;51033;42.648;23.292;2022-11-25T06:03:41;93809.94;;;3.64;55.24
30935;BME280;51033;42.648;23.292;2022-11-25T06:06:08;93845.66;;;3.85;55.19
30935;BME280;51033;42.648;23.292;2022-11-25T06:08:35;93832.03;;;3.63;55.38
30935;BME280;51033;42.648;23.292;2022-11-25T06:11:09;93822.28;;;3.68;55.28
30935;BME280;51033;42.648;23.292;2022-11-25T06:13:36;93864.47;;;4.07;54.85
30935;BME280;51033;42.648;23.292;2022-11-25T06:16:19;93867.19;;;3.92;55.04
30935;BME280;51033;42.648;23.292;2022-11-25T06:18:45;93857.78;;;3.81;55.43
30935;BME280;51033;42.648;23.292;2022-11-25T06:21:12;93864.31;;;3.89;55.28
30935;BME280;51033;42.648;23.292;2022-11-25T06:23:38;93842.00;;;3.76;55.07
30935;BME280;51033;42.648;23.292;2022-11-25T06:26:11;93876.59;;;4.03;54.77
30935;BME280;51033;42.648;23.292;2022-11-25T06:28:37;93853.31;;;3.81;54.62
30935;BME280;51033;42.648;23.292;2022-11-25T06:31:07;93882.91;;;4.02;54.18
30935;BME280;51033;42.648;23.292;2022-11-25T06:33:33;93909.78;;;3.99;54.24
30935;BME280;51033;42.648;23.292;2022-11-25T06:36:02;93906.13;;;3.95;54.50
30935;BME280;51033;42.648;23.292;2022-11-25T06:38:28;93907.41;;;3.98;53.94
30935;BME280;51033;42.648;23.292;2022-11-25T06:40:53;93906.16;;;3.90;54.14
30935;BME280;51033;42.648;23.292;2022-11-25T06:43:18;93894.00;;;3.99;54.21
30935;BME280;51033;42.648;23.292;2022-11-25T06:45:44;93914.00;;;4.00;53.84
30935;BME280;51033;42.648;23.292;2022-11-25T06:48:09;93875.63;;;3.89;53.99
30935;BME280;51033;42.648;23.292;2022-11-25T06:50:34;93900.34;;;3.93;54.29
30935;BME280;51033;42.648;23.292;2022-11-25T06:53:01;93910.00;;;4.13;54.11
30935;BME280;51033;42.648;23.292;2022-11-25T06:55:26;93913.66;;;4.12;53.92
30935;BME280;51033;42.648;23.292;2022-11-25T06:57:52;93898.72;;;3.97;54.20
30935;BME280;51033;42.648;23.292;2022-11-25T07:00:17;93911.63;;;4.04;54.11
30935;BME280;51033;42.648;23.292;2022-11-25T07:02:43;93899.53;;;3.98;54.28
30935;BME280;51033;42.648;23.292;2022-11-25T07:05:08;93896.66;;;3.94;54.72
30935;BME280;51033;42.648;23.292;2022-11-25T07:07:34;93912.84;;;4.21;53.67
30935;BME280;51033;42.648;23.292;2022-11-25T07:10:00;93924.94;;;4.27;53.91
30935;BME280;51033;42.648;23.292;2022-11-25T07:12:25;93869.28;;;3.95;53.52
30935;BME280;51033;42.648;23.292;2022-11-25T07:14:50;93917.63;;;4.14;53.68
30935;BME280;51033;42.648;23.292;2022-11-25T07:17:16;93904.97;;;4.16;53.67
30935;BME280;51033;42.648;23.292;2022-11-25T07:19:41;93898.16;;;4.15;53.19
30935;BME280;51033;42.648;23.292;2022-11-25T07:22:07;93904.91;;;4.37;52.79
30935;BME280;51033;42.648;23.292;2022-11-25T07:24:32;93924.84;;;4.48;52.98
30935;BME280;51033;42.648;23.292;2022-11-25T07:26:58;93913.31;;;4.39;52.67
30935;BME280;51033;42.648;23.292;2022-11-25T07:29:23;93914.78;;;4.60;52.80
30935;BME280;51033;42.648;23.292;2022-11-25T07:31:49;93934.81;;;4.56;52.20
30935;BME280;51033;42.648;23.292;2022-11-25T07:34:19;93941.50;;;4.38;52.90
30935;BME280;51033;42.648;23.292;2022-11-25T07:36:47;93933.38;;;4.35;52.95
30935;BME280;51033;42.648;23.292;2022-11-25T07:39:15;93894.44;;;4.16;52.84
30935;BME280;51033;42.648;23.292;2022-11-25T07:41:41;93944.59;;;4.50;52.48
30935;BME280;51033;42.648;23.292;2022-11-25T07:44:09;93940.06;;;4.61;52.87
30935;BME280;51033;42.648;23.292;2022-11-25T07:46:37;93945.78;;;4.73;52.24
30935;BME280;51033;42.648;23.292;2022-11-25T07:49:06;93936.19;;;4.48;52.39
30935;BME280;51033;42.648;23.292;2022-11-25T07:51:34;93944.72;;;4.79;52.31
30935;BME280;51033;42.648;23.292;2022-11-25T07:54:01;93957.72;;;4.99;51.94
30935;BME280;51033;42.648;23.292;2022-11-25T07:56:27;93955.09;;;4.99;51.35
30935;BME280;51033;42.648;23.292;2022-11-25T07:58:54;93943.53;;;4.95;50.75
30935;BME280;51033;42.648;23.292;2022-11-25T08:01:19;93946.47;;;4.94;50.87
30935;BME280;51033;42.648;23.292;2022-11-25T08:03:46;93939.50;;;4.69;51.61
30935;BME280;51033;42.648;23.292;2022-11-25T08:06:17;93953.44;;;4.75;51.37
30935;BME280;51033;42.648;23.292;2022-11-25T08:08:43;93960.47;;;4.89;51.50
30935;BME280;51033;42.648;23.292;2022-11-25T08:11:15;93964.97;;;5.23;51.38
30935;BME280;51033;42.648;23.292;2022-11-25T08:13:41;93971.38;;;5.11;51.12
30935;BME280;51033;42.648;23.292;2022-11-25T08:16:09;93964.41;;;5.26;50.95
30935;BME280;51033;42.648;23.292;2022-11-25T08:18:34;93958.41;;;5.15;50.42
30935;BME280;51033;42.648;23.292;2022-11-25T08:21:02;93954.16;;;5.19;51.14
30935;BME280;51033;42.648;23.292;2022-11-25T08:23:34;93969.16;;;5.57;51.08
30935;BME280;51033;42.648;23.292;2022-11-25T08:26:09;93966.22;;;5.59;50.19
30935;BME280;51033;42.648;23.292;2022-11-25T08:28:35;93971.31;;;5.79;50.01
30935;BME280;51033;42.648;23.292;2022-11-25T08:33:28;93967.09;;;5.78;49.23
30935;BME280;51033;42.648;23.292;2022-11-25T08:35:53;93945.06;;;5.64;49.12
30935;BME280;51033;42.648;23.292;2022-11-25T08:38:19;93953.94;;;5.73;49.40
30935;BME280;51033;42.648;23.292;2022-11-25T08:40:44;93943.19;;;5.70;49.57
30935;BME280;51033;42.648;23.292;2022-11-25T08:43:11;93972.84;;;6.09;49.23
30935;BME280;51033;42.648;23.292;2022-11-25T08:45:38;93974.38;;;6.20;49.18
30935;BME280;51033;42.648;23.292;2022-11-25T08:48:04;93968.38;;;6.33;49.02
30935;BME280;51033;42.648;23.292;2022-11-25T08:50:29;93972.25;;;6.41;48.65
30935;BME280;51033;42.648;23.292;2022-11-25T08:52:55;93971.97;;;6.42;48.20
30935;BME280;51033;42.648;23.292;2022-11-25T08:55:21;93956.94;;;6.19;48.52
30935;BME280;51033;42.648;23.292;2022-11-25T08:57:50;93948.81;;;6.11;48.42
30935;BME280;51033;42.648;23.292;2022-11-25T09:00:16;93941.63;;;5.92;48.59
30935;BME280;51033;42.648;23.292;2022-11-25T09:02:41;93970.50;;;6.08;49.13
30935;BME280;51033;42.648;23.292;2022-11-25T09:05:09;93976.03;;;6.11;49.15
30935;BME280;51033;42.648;23.292;2022-11-25T09:07:35;93965.38;;;6.21;49.04
30935;BME280;51033;42.648;23.292;2022-11-25T09:10:00;93950.47;;;6.07;48.81
30935;BME280;51033;42.648;23.292;2022-11-25T09:12:25;93939.81;;;6.12;49.13
30935;BME280;51033;42.648;23.292;2022-11-25T09:14:51;93978.56;;;6.45;48.38
30935;BME280;51033;42.648;23.292;2022-11-25T09:17:16;93923.88;;;6.22;48.20
30935;BME280;51033;42.648;23.292;2022-11-25T09:19:42;93986.84;;;6.57;48.08
30935;BME280;51033;42.648;23.292;2022-11-25T09:22:07;93952.50;;;6.57;47.80
30935;BME280;51033;42.648;23.292;2022-11-25T09:24:34;93977.88;;;6.77;48.32
30935;BME280;51033;42.648;23.292;2022-11-25T09:27:00;93915.34;;;6.30;48.23
30935;BME280;51033;42.648;23.292;2022-11-25T09:29:25;93960.03;;;6.69;48.37
30935;BME280;51033;42.648;23.292;2022-11-25T09:31:52;93957.78;;;6.57;48.08
30935;BME280;51033;42.648;23.292;2022-11-25T09:34:17;93980.06;;;6.27;48.31
30935;BME280;51033;42.648;23.292;2022-11-25T09:36:43;93985.16;;;6.24;48.67
30935;BME280;51033;42.648;23.292;2022-11-25T09:39:09;93947.97;;;6.15;48.80
30935;BME280;51033;42.648;23.292;2022-11-25T09:41:55;93940.28;;;5.95;49.36
30935;BME280;51033;42.648;23.292;2022-11-25T09:55:44;93974.47;;;6.34;49.46
30935;BME280;51033;42.648;23.292;2022-11-25T09:58:36;93979.63;;;6.44;49.32
30935;BME280;51033;42.648;23.292;2022-11-25T10:01:13;93962.38;;;6.28;48.73
30935;BME280;51033;42.648;23.292;2022-11-25T10:03:52;93987.41;;;6.35;49.02
30935;BME280;51033;42.648;23.292;2022-11-25T10:06:25;93989.41;;;6.20;49.30
30935;BME280;51033;42.648;23.292;2022-11-25T10:08:57;93977.75;;;6.26;49.52
30935;BME280;51033;42.648;23.292;2022-11-25T10:11:51;93990.63;;;6.51;49.17
30935;BME280;51033;42.648;23.292;2022-11-25T10:17:06;93988.09;;;6.41;48.22
30935;BME280;51033;42.648;23.292;2022-11-25T10:22:32;93987.66;;;6.34;48.57
30935;BME280;51033;42.648;23.292;2022-11-25T10:25:12;93979.22;;;6.32;48.54
30935;BME280;51033;42.648;23.292;2022-11-25T10:27:56;93980.06;;;6.51;48.31
30935;BME280;51033;42.648;23.292;2022-11-25T10:30:23;93981.50;;;6.62;48.48
30935;BME280;51033;42.648;23.292;2022-11-25T10:33:20;93976.16;;;6.67;48.04
30935;BME280;51033;42.648;23.292;2022-11-25T10:38:56;93993.66;;;6.63;47.61
30935;BME280;51033;42.648;23.292;2022-11-25T10:41:26;93982.63;;;6.56;47.78
30935;BME280;51033;42.648;23.292;2022-11-25T10:43:53;93974.91;;;6.41;48.23
30935;BME280;51033;42.648;23.292;2022-11-25T10:46:43;93983.34;;;6.43;47.41
30935;BME280;51033;42.648;23.292;2022-11-25T10:52:12;93979.69;;;6.39;47.80
30935;BME280;51033;42.648;23.292;2022-11-25T10:54:38;93990.88;;;6.31;47.36
30935;BME280;51033;42.648;23.292;2022-11-25T10:57:16;93995.03;;;6.37;47.51
30935;BME280;51033;42.648;23.292;2022-11-25T10:59:54;93981.00;;;6.13;47.62
30935;BME280;51033;42.648;23.292;2022-11-25T11:02:25;93986.91;;;6.05;48.21
30935;BME280;51033;42.648;23.292;2022-11-25T11:07:42;94008.47;;;6.12;48.66
30935;BME280;51033;42.648;23.292;2022-11-25T11:10:17;94010.66;;;6.05;48.68
30935;BME280;51033;42.648;23.292;2022-11-25T11:13:19;94018.69;;;5.94;49.24
30935;BME280;51033;42.648;23.292;2022-11-25T11:20:51;93988.72;;;5.51;50.50
30935;BME280;51033;42.648;23.292;2022-11-25T11:23:17;93983.16;;;5.53;51.05
30935;BME280;51033;42.648;23.292;2022-11-25T11:25:58;93991.66;;;5.45;51.03
30935;BME280;51033;42.648;23.292;2022-11-25T11:28:36;94001.16;;;5.46;51.26
30935;BME280;51033;42.648;23.292;2022-11-25T11:31:15;93991.72;;;5.40;51.71
30935;BME280;51033;42.648;23.292;2022-11-25T11:36:34;94015.25;;;5.65;51.27
30935;BME280;51033;42.648;23.292;2022-11-25T11:41:56;94027.22;;;5.86;51.05
30935;BME280;51033;42.648;23.292;2022-11-25T11:47:18;94008.41;;;5.64;51.15
30935;BME280;51033;42.648;23.292;2022-11-25T11:52:54;94021.94;;;5.57;51.90
30935;BME280;51033;42.648;23.292;2022-11-25T12:03:54;93990.91;;;5.05;51.87
30935;BME280;51033;42.648;23.292;2022-11-25T12:06:22;94013.44;;;5.27;51.72
30935;BME280;51033;42.648;23.292;2022-11-25T12:08:54;93977.22;;;5.03;51.88
30935;BME280;51033;42.648;23.292;2022-11-25T12:11:28;94015.13;;;5.12;52.54
30935;BME280;51033;42.648;23.292;2022-11-25T12:14:10;94027.22;;;5.19;52.02
30935;BME280;51033;42.648;23.292;2022-11-25T12:16:50;94021.16;;;5.18;52.30
30935;BME280;51033;42.648;23.292;2022-11-25T12:19:22;93996.69;;;5.07;52.31
30935;BME280;51033;42.648;23.292;2022-11-25T12:22:02;94028.41;;;5.36;51.85
30935;BME280;51033;42.648;23.292;2022-11-25T12:24:39;94026.28;;;5.38;51.91
30935;BME280;51033;42.648;23.292;2022-11-25T12:27:20;94021.84;;;5.29;51.30
30935;BME280;51033;42.648;23.292;2022-11-25T12:30:11;94028.03;;;5.09;51.80
30935;BME280;51033;42.648;23.292;2022-11-25T12:40:19;93978.41;;;4.82;51.95
30935;BME280;51033;42.648;23.292;2022-11-25T12:42:48;94015.22;;;4.97;52.14
30935;BME280;51033;42.648;23.292;2022-11-25T12:45:19;94019.75;;;4.87;52.52
30935;BME280;51033;42.648;23.292;2022-11-25T12:47:46;93995.81;;;4.78;52.43
30935;BME280;51033;42.648;23.292;2022-11-25T12:50:17;94004.00;;;4.77;52.94
30935;BME280;51033;42.648;23.292;2022-11-25T12:53:01;93974.84;;;4.58;53.02
30935;BME280;51033;42.648;23.292;2022-11-25T12:55:32;93963.50;;;4.62;52.83
30935;BME280;51033;42.648;23.292;2022-11-25T13:03:29;93997.81;;;4.96;52.67
30935;BME280;51033;42.648;23.292;2022-11-25T13:17:27;93997.25;;;4.99;52.48
30935;BME280;51033;42.648;23.292;2022-11-25T13:25:40;94003.88;;;4.97;52.01
30935;BME280;51033;42.648;23.292;2022-11-25T13:30:53;93981.09;;;4.72;52.76
30935;BME280;51033;42.648;23.292;2022-11-25T13:35:53;94015.31;;;5.21;51.70
30935;BME280;51033;42.648;23.292;2022-11-25T13:41:01;94012.91;;;5.25;50.74
30935;BME280;51033;42.648;23.292;2022-11-25T13:43:27;93990.91;;;5.05;50.98
30935;BME280;51033;42.648;23.292;2022-11-25T13:45:53;94007.44;;;5.16;50.91
30935;BME280;51033;42.648;23.292;2022-11-25T13:50:47;94013.50;;;5.17;51.41
30935;BME280;51033;42.648;23.292;2022-11-25T13:53:21;94007.63;;;5.30;51.19
30935;BME280;51033;42.648;23.292;2022-11-25T13:55:47;94002.41;;;5.20;51.16
30935;BME280;51033;42.648;23.292;2022-11-25T13:58:23;94009.31;;;5.10;51.01
30935;BME280;51033;42.648;23.292;2022-11-25T14:01:19;94012.00;;;5.05;50.67
30935;BME280;51033;42.648;23.292;2022-11-25T14:03:47;94020.09;;;5.14;50.61
30935;BME280;51033;42.648;23.292;2022-11-25T14:09:03;94014.25;;;5.27;50.68
30935;BME280;51033;42.648;23.292;2022-11-25T14:20:02;94032.38;;;5.34;50.63
30935;BME280;51033;42.648;23.292;2022-11-25T14:25:20;94030.84;;;5.28;50.30
30935;BME280;51033;42.648;23.292;2022-11-25T14:27:51;94041.94;;;5.25;50.27
30935;BME280;51033;42.648;23.292;2022-11-25T14:30:21;94047.03;;;5.11;50.74
30935;BME280;51033;42.648;23.292;2022-11-25T14:32:55;94039.91;;;5.11;50.90
30935;BME280;51033;42.648;23.292;2022-11-25T14:35:36;94045.97;;;5.12;50.75
30935;BME280;51033;42.648;23.292;2022-11-25T14:38:06;94051.69;;;5.24;50.78
30935;BME280;51033;42.648;23.292;2022-11-25T14:40:50;94045.06;;;5.32;50.65
30935;BME280;51033;42.648;23.292;2022-11-25T14:43:21;94016.63;;;5.24;50.18
30935;BME280;51033;42.648;23.292;2022-11-25T14:45:47;94026.06;;;5.30;49.91
30935;BME280;51033;42.648;23.292;2022-11-25T14:48:32;94050.22;;;5.47;49.66
30935;BME280;51033;42.648;23.292;2022-11-25T14:51:06;94045.19;;;5.50;49.50
30935;BME280;51033;42.648;23.292;2022-11-25T14:53:46;94037.19;;;5.27;49.69
30935;BME280;51033;42.648;23.292;2022-11-25T14:56:12;94054.13;;;5.16;49.95
30935;BME280;51033;42.648;23.292;2022-11-25T14:58:40;94047.84;;;5.06;50.13
30935;BME280;51033;42.648;23.292;2022-11-25T15:01:15;94053.69;;;4.98;50.52